Mon, 30 Jan 2023 14:33:24 UTC

Information for RPM xstream-1.4.9-5.fc25.noarch.rpm

ID9490634
Namexstream
Version1.4.9
Release5.fc25
Epoch
Archnoarch
SummaryJava XML serialization library
DescriptionXStream is a simple library to serialize objects to XML and back again. A high level facade is supplied that simplifies common use cases. Custom objects can be serialized without need for specifying mappings. Speed and low memory footprint are a crucial part of the design, making it suitable for large object graphs or systems with high message throughput. No information is duplicated that can be obtained via reflection. This results in XML that is easier to read for humans and more compact than native Java serialization. XStream serializes internal fields, including private and final. Supports non-public and inner classes. Classes are not required to have default constructor. Duplicate references encountered in the object-model will be maintained. Supports circular references. By implementing an interface, XStream can serialize directly to/from any tree structure (not just XML). Strategies can be registered allowing customization of how particular types are represented as XML. When an exception occurs due to malformed XML, detailed diagnostics are provided to help isolate and fix the problem.
Build Time2017-04-12 10:35:25 GMT
Size498.62 KB
7b63964023446484ebd866657ad82a8f
LicenseBSD
Buildrootf25-build-8238069-731801
Provides
mvn(com.thoughtworks.xstream:xstream) = 1.4.9
mvn(com.thoughtworks.xstream:xstream:pom:) = 1.4.9
osgi(xstream) = 1.4.9
xstream = 1.4.9-5.fc25
Obsoletes No Obsoletes
Conflicts No Conflicts
Requires
java-headless >= 1:1.8
javapackages-tools
mvn(xpp3:xpp3)
mvn(xpp3:xpp3_min)
rpmlib(CompressedFileNames) <= 3.0.4-1
rpmlib(FileDigests) <= 4.6.0-1
rpmlib(PayloadFilesHavePrefix) <= 4.0-1
rpmlib(PayloadIsXz) <= 5.2-1
Recommends No Recommends
Suggests No Suggests
Supplements No Supplements
Enhances No Enhances
Files
1 through 10 of 10
Name ascending sort Size
/usr/share/doc/xstream4.00 KB
/usr/share/doc/xstream/LICENSE.txt1.49 KB
/usr/share/doc/xstream/README.txt1.10 KB
/usr/share/java/xstream4.00 KB
/usr/share/java/xstream.jar19.00 B
/usr/share/java/xstream/xstream.jar554.24 KB
/usr/share/maven-metadata/xstream.xml8.23 KB
/usr/share/maven-poms/xstream4.00 KB
/usr/share/maven-poms/xstream.pom19.00 B
/usr/share/maven-poms/xstream/xstream.pom11.37 KB
Component of
Page:
1 through 50 of 97 >>>
Buildroot descending sort Created State
f25-build-10715134-822635 2017-12-04 05:47:31 expired
f25-build-10525203-814485 2017-11-16 14:50:26 expired
f25-build-10521976-814485 2017-11-16 00:43:21 expired
f25-build-10452678-810855 2017-11-09 06:01:55 expired
f25-build-10372421-805882 2017-10-31 21:54:47 expired
f25-build-10367700-805882 2017-10-31 08:59:44 expired
f25-build-10367133-805774 2017-10-31 07:35:38 expired
f25-build-10366408-805774 2017-10-31 05:27:23 expired
f25-build-10241769-800912 2017-10-20 17:48:28 expired
f25-build-10241765-800912 2017-10-20 17:48:25 expired
f25-build-10241764-800912 2017-10-20 17:48:22 expired
f25-build-10210616-799413 2017-10-17 15:50:18 expired
f25-build-10029900-790489 2017-09-29 07:47:54 expired
f25-build-10029898-790489 2017-09-29 07:47:44 expired
f25-build-10029897-790489 2017-09-29 07:47:44 expired
f25-build-10020973-790214 2017-09-28 10:54:21 expired
f25-build-10020972-790214 2017-09-28 10:54:20 expired
f25-build-10020969-790214 2017-09-28 10:54:17 expired
f25-build-9948964-787354 2017-09-20 12:42:33 expired
f25-build-9939154-786896 2017-09-19 03:18:00 expired
f25-build-9939084-786896 2017-09-19 02:57:51 expired
f25-build-9864536-784426 2017-09-12 13:26:02 expired
f25-build-9796580-782961 2017-09-07 00:25:08 expired
f25-build-9791353-782304 2017-09-06 13:52:34 expired
f25-build-9768585-781985 2017-09-04 07:30:31 expired
f25-build-9644038-778808 2017-08-23 09:49:22 expired
f25-build-9462535-775141 2017-08-07 20:27:48 expired
f25-build-9462533-775141 2017-08-07 20:27:42 expired
f25-build-9462532-775141 2017-08-07 20:27:41 expired
f25-build-9404266-774331 2017-08-03 15:24:39 expired
f25-build-9166424-770200 2017-07-20 15:11:36 expired
f25-build-9152602-769623 2017-07-19 01:44:39 expired
f25-build-9079139-768106 2017-07-12 19:10:38 expired
f25-build-9079137-768106 2017-07-12 19:10:37 expired
f25-build-9079136-768106 2017-07-12 19:10:34 expired
f25-build-9064319-767653 2017-07-11 07:35:11 expired
f25-build-9064278-767653 2017-07-11 07:26:01 expired
f25-build-9059654-767439 2017-07-10 21:20:02 expired
f25-build-9059653-767439 2017-07-10 21:20:01 expired
f25-build-9059652-767439 2017-07-10 21:19:57 expired
f25-build-9047917-767158 2017-07-09 18:10:49 expired
f25-build-9047912-767158 2017-07-09 18:10:43 expired
f25-build-9047911-767158 2017-07-09 18:10:43 expired
f25-build-9036411-767051 2017-07-08 18:59:55 expired
f25-build-9036402-767051 2017-07-08 18:59:45 expired
f25-build-9036401-767051 2017-07-08 18:59:34 expired
f25-build-9025411-766968 2017-07-08 04:23:57 expired
f25-build-9025410-766968 2017-07-08 04:23:56 expired
f25-build-9025409-766968 2017-07-08 04:23:55 expired
f25-build-8991629-765764 2017-07-04 21:06:39 expired